Ole-arvid Nergaard — LLAY — position and weather

sailwx.info

Track history (hours):
 
Tides and Currents Weather Stations Pressure Air Temp Water Temp Dewpoint Dewpoint Depression Visibility Wind Speed Wind Dir Waves Ship Positions

Ole-arvid Nergaard

Last reported at 2017-Aug-16 19:43 UTC. Time now 2017-Aug-16 21:42 UTC.
Position N 69°57' E 016°53'.

Length 55 m; draft 7.2 m.

Type: Fishing. MMSI: 259656000.

Date/timePositionNaut miles runAvg speedWind from/ knotsBaromVisibWave heightAir tempDewpointWater temp
2017-Aug-16 19:43N 69°57' E 016°53'1 4.1
2017-Aug-16 19:29N 69°57' E 016°55'2 3.4
2017-Aug-16 18:59N 69°57' E 017°00'1 1.7
2017-Aug-16 18:30N 69°57' E 016°58'2 3.1
2017-Aug-16 18:00N 69°57' E 016°54'2 3.8
2017-Aug-16 17:30N 69°55' E 016°49'2 4.0
2017-Aug-16 17:00N 69°55' E 016°44'1 0.6
2017-Aug-16 16:00N 69°55' E 016°45'2 3.6
2017-Aug-16 15:30N 69°55' E 016°50'2 3.9
2017-Aug-16 15:00N 69°54' E 016°45'2 4.0
2017-Aug-16 14:30N 69°54' E 016°39'3 3.4
2017-Aug-16 13:38N 69°55' E 016°46'1 3.9
2017-Aug-16 13:30N 69°55' E 016°47'1 2.4
2017-Aug-16 13:00N 69°54' E 016°46'3 1.0
2017-Aug-16 10:31N 69°54' E 016°38'0 4.3
2017-Aug-16 10:29N 69°54' E 016°38'2 3.3
2017-Aug-16 10:00N 69°54' E 016°43'2 3.7
2017-Aug-16 09:30N 69°55' E 016°47'3 1.0
2017-Aug-16 06:59N 69°54' E 016°40'2 3.5
2017-Aug-16 06:30N 69°54' E 016°45'2 3.5
2017-Aug-16 06:00N 69°55' E 016°50'1 2.1
2017-Aug-16 05:29N 69°56' E 016°49'3 4.1
2017-Aug-16 04:45N 69°54' E 016°41'1 4.9
2017-Aug-16 04:30N 69°53' E 016°40'1 1.3
2017-Aug-16 03:49N 69°54' E 016°39'1 2.5
2017-Aug-16 03:30N 69°54' E 016°41'2 3.5
2017-Aug-16 03:00N 69°54' E 016°46'2 1.1
2017-Aug-16 01:03N 69°54' E 016°40'6 2.9
2017-Aug-15 23:06N 69°57' E 016°54'0 3.8
2017-Aug-15 23:00N 69°57' E 016°55'2 4.0
2017-Aug-15 22:30N 69°57' E 017°01'2 4.4
2017-Aug-15 22:00N 69°57' E 017°08'510.3
2017-Aug-15 21:30N 69°58' E 017°23'611.1
2017-Aug-15 20:59N 69°58' E 017°39'611.2
2017-Aug-15 20:29N 69°57' E 017°55'511.0
2017-Aug-15 20:00N 69°57' E 018°11'511.0
2017-Aug-15 19:30N 69°56' E 018°27'511.0
2017-Aug-15 19:00N 69°55' E 018°42'611.5
2017-Aug-15 18:30N 69°51' E 018°55'611.8
2017-Aug-15 18:00N 69°46' E 019°04'611.0
2017-Aug-15 17:30N 69°41' E 019°00'0 0.5
2017-Aug-15 17:00N 69°41' E 018°59'0 0.0
2017-Aug-15 16:30N 69°41' E 018°59'0 0.8
2017-Aug-15 16:00N 69°40' E 018°60'2 3.1
2017-Aug-15 15:30N 69°39' E 018°59'0 0.0
2017-Aug-15 15:00N 69°39' E 018°59'0 0.0
2017-Aug-15 14:30N 69°39' E 018°59'0 0.0
2017-Aug-15 14:00N 69°39' E 018°59'0 0.0
2017-Aug-15 13:30N 69°39' E 018°59'0 0.0
2017-Aug-15 13:00N 69°39' E 018°59'0 0.0
2017-Aug-15 12:30N 69°39' E 018°59'0 0.0
2017-Aug-15 12:00N 69°39' E 018°59'0 0.0
2017-Aug-15 11:29N 69°39' E 018°59'0 0.0
2017-Aug-15 11:00N 69°39' E 018°59'0 0.0
2017-Aug-15 10:30N 69°39' E 018°59'0 0.0
2017-Aug-15 10:00N 69°39' E 018°59'0 0.0
2017-Aug-15 09:30N 69°39' E 018°59'0 0.0
2017-Aug-15 09:00N 69°39' E 018°59'0 0.0
2017-Aug-15 08:30N 69°39' E 018°59'0 0.0
2017-Aug-15 08:00N 69°39' E 018°59'0 0.0
2017-Aug-15 07:30N 69°39' E 018°59'0 0.0
2017-Aug-15 07:00N 69°39' E 018°59'0 0.0
2017-Aug-15 06:30N 69°39' E 018°59'0 0.0
2017-Aug-15 05:59N 69°39' E 018°59'0 0.0
2017-Aug-15 05:30N 69°39' E 018°59'0 0.0
2017-Aug-15 05:00N 69°39' E 018°59'0 0.0
2017-Aug-15 04:30N 69°39' E 018°59'1 1.9
2017-Aug-15 03:59N 69°40' E 018°60'4 8.2
2017-Aug-15 03:30N 69°44' E 019°03'3 6.0
2017-Aug-15 03:00N 69°46' E 019°06'2 3.7
2017-Aug-15 02:30N 69°47' E 019°12'4 7.7
2017-Aug-15 02:00N 69°48' E 019°22'3 6.6
2017-Aug-15 01:30N 69°49' E 019°31'2 4.4
2017-Aug-15 01:00N 69°50' E 019°37'1 2.6
2017-Aug-15 00:30N 69°50' E 019°40'1 2.9
2017-Aug-15 00:00N 69°51' E 019°44'2 4.4
2017-Aug-14 23:30N 69°52' E 019°50'3 6.3
2017-Aug-14 23:00N 69°54' E 019°56'2 4.8
2017-Aug-14 22:29N 69°56' E 019°59'3 5.9
2017-Aug-14 21:59N 69°59' E 020°02'3 6.4
2017-Aug-14 21:30N 70°02' E 020°06'3 5.6
2017-Aug-14 21:00N 70°05' E 020°10'4 9.0
2017-Aug-14 20:30N 70°09' E 020°15'5 9.5
2017-Aug-14 20:00N 70°13' E 020°21'5 9.2
2017-Aug-14 19:30N 70°16' E 020°30'5 9.4
2017-Aug-14 19:00N 70°20' E 020°38'5 9.1
2017-Aug-14 18:30N 70°24' E 020°45'5 9.1
2017-Aug-14 18:00N 70°28' E 020°52'4 8.2
2017-Aug-14 17:30N 70°32' E 020°58'4 7.9
2017-Aug-14 17:00N 70°35' E 021°02'4 8.5
2017-Aug-14 16:30N 70°39' E 021°05'21 0.9
2017-Aug-13 18:29N 70°41' E 020°03'2 4.4
2017-Aug-13 18:00N 70°39' E 019°60'1 1.8
2017-Aug-13 17:30N 70°39' E 019°60'2 3.3
2017-Aug-13 17:00N 70°39' E 020°05'2 3.8
2017-Aug-13 16:30N 70°40' E 020°10'2 3.7
2017-Aug-13 16:00N 70°41' E 020°15'1 0.1
2017-Aug-13 05:22N 70°41' E 020°18'2 4.4
2017-Aug-13 05:00N 70°41' E 020°13'2 4.2
2017-Aug-13 04:30N 70°41' E 020°07'2 4.2
2017-Aug-13 04:00N 70°40' E 020°01'3 6.4
2017-Aug-13 03:30N 70°39' E 019°52'713.5
2017-Aug-13 03:00N 70°38' E 019°32'713.5
2017-Aug-13 02:30N 70°36' E 019°12'713.2
2017-Aug-13 02:00N 70°34' E 018°53'61 3.7
2017-Aug-12 09:29N 69°54' E 016°38'0 0.1
2017-Aug-12 08:49N 69°54' E 016°38'1 3.9
2017-Aug-12 08:30N 69°54' E 016°42'2 4.1
2017-Aug-12 08:00N 69°53' E 016°48'2 4.0
2017-Aug-12 07:30N 69°54' E 016°53'2 4.0
2017-Aug-12 07:00N 69°55' E 016°58'2 3.9
2017-Aug-12 06:30N 69°55' E 017°04'2 4.3
2017-Aug-12 06:00N 69°55' E 017°10'2 3.2
2017-Aug-12 05:30N 69°54' E 017°06'2 3.8
2017-Aug-12 05:00N 69°54' E 017°01'2 3.9
2017-Aug-12 04:30N 69°54' E 016°55'2 3.9
2017-Aug-12 04:00N 69°56' E 016°52'3 0.6
2017-Aug-11 23:07N 69°58' E 016°57'0 4.2
2017-Aug-11 23:00N 69°58' E 016°59'1 2.4
2017-Aug-11 22:30N 69°58' E 017°02'9 3.2
2017-Aug-11 19:36N 69°54' E 016°38'1 6.3
2017-Aug-11 19:29N 69°53' E 016°38'2 4.4
2017-Aug-11 19:00N 69°51' E 016°37'1 1.3
2017-Aug-11 18:30N 69°51' E 016°38'2 3.6
2017-Aug-11 18:00N 69°53' E 016°39'2 3.2
2017-Aug-11 17:17N 69°55' E 016°43'1 3.9
2017-Aug-11 16:59N 69°55' E 016°46'2 3.9
2017-Aug-11 16:30N 69°55' E 016°52'2 4.0
2017-Aug-11 16:00N 69°56' E 016°58'2 4.0
2017-Aug-11 15:30N 69°56' E 017°03'2 4.1
2017-Aug-11 15:00N 69°56' E 017°09'8 7.9
2017-Aug-11 14:00N 69°56' E 017°32'611.9
2017-Aug-11 13:30N 69°57' E 017°50'611.3
2017-Aug-11 13:00N 69°58' E 018°06'511.1
2017-Aug-11 12:30N 69°56' E 018°22'510.8
2017-Aug-11 12:00N 69°55' E 018°37'611.3
2017-Aug-11 11:30N 69°52' E 018°51'510.0
2017-Aug-11 11:00N 69°49' E 019°01'5 9.4
2017-Aug-11 10:30N 69°44' E 019°03'4 7.8
2017-Aug-11 10:00N 69°40' E 018°59'0 0.5
2017-Aug-11 09:30N 69°41' E 018°59'0 0.0
2017-Aug-11 09:00N 69°41' E 018°59'0 0.0
2017-Aug-11 08:30N 69°41' E 018°59'0 0.0
2017-Aug-11 08:00N 69°41' E 018°59'0 0.0
2017-Aug-11 07:30N 69°41' E 018°59'0 0.0
2017-Aug-11 07:00N 69°41' E 018°59'0 0.0
2017-Aug-11 06:30N 69°41' E 018°59'0 0.0
2017-Aug-11 06:00N 69°41' E 018°59'0 0.0
2017-Aug-11 05:30N 69°41' E 018°59'0 0.0
2017-Aug-11 05:00N 69°41' E 018°59'0 0.0
2017-Aug-11 04:30N 69°41' E 018°59'0 0.0
2017-Aug-11 04:00N 69°41' E 018°59'0 0.0
2017-Aug-11 03:30N 69°41' E 018°59'0 0.0
2017-Aug-11 03:00N 69°41' E 018°59'0 0.0
2017-Aug-11 02:30N 69°41' E 018°59'0 0.0
2017-Aug-11 02:00N 69°41' E 018°59'0 0.0
2017-Aug-11 01:30N 69°41' E 018°59'0 0.0
2017-Aug-11 01:00N 69°41' E 018°59'0 0.0
2017-Aug-11 00:29N 69°41' E 018°59'0 0.0
2017-Aug-11 00:00N 69°41' E 018°59'0 0.0
2017-Aug-10 23:30N 69°41' E 018°59'0 0.0
2017-Aug-10 23:00N 69°41' E 018°59'0 0.0
2017-Aug-10 22:29N 69°41' E 018°59'0 0.0
2017-Aug-10 22:00N 69°41' E 018°59'0 0.0
2017-Aug-10 21:30N 69°41' E 018°59'0 0.0
2017-Aug-10 20:59N 69°41' E 018°59'0 0.0
2017-Aug-10 20:30N 69°41' E 018°59'0 0.0
2017-Aug-10 19:59N 69°41' E 018°59'0 0.0
2017-Aug-10 19:29N 69°41' E 018°59'0 0.0
2017-Aug-10 19:00N 69°41' E 018°59'0 0.0
2017-Aug-10 18:29N 69°41' E 018°59'0 0.0
2017-Aug-10 17:59N 69°41' E 018°59'0 0.0
2017-Aug-10 17:30N 69°41' E 018°59'0 0.0
2017-Aug-10 17:00N 69°41' E 018°59'0 0.0
2017-Aug-10 16:30N 69°41' E 018°59'0 0.0
2017-Aug-10 16:00N 69°41' E 018°59'0 0.0
2017-Aug-10 15:30N 69°41' E 018°59'0 0.0
2017-Aug-10 15:00N 69°41' E 018°59'0 0.0
2017-Aug-10 14:30N 69°41' E 018°59'0 0.0
2017-Aug-10 13:57N 69°41' E 018°59'0 0.0
2017-Aug-10 13:30N 69°41' E 018°59'0 0.0
2017-Aug-10 13:00N 69°41' E 018°59'0 0.0
2017-Aug-10 12:30N 69°41' E 018°59'0 0.0
2017-Aug-10 12:00N 69°41' E 018°59'0 0.0
2017-Aug-10 11:30N 69°41' E 018°59'0 0.0
2017-Aug-10 11:00N 69°41' E 018°59'0 0.0
2017-Aug-10 10:30N 69°41' E 018°59'0 0.0
2017-Aug-10 10:00N 69°41' E 018°59'0 0.0
2017-Aug-10 09:30N 69°41' E 018°59'0 0.0
2017-Aug-10 09:00N 69°41' E 018°59'0 0.0
2017-Aug-10 08:30N 69°41' E 018°59'0 0.0
2017-Aug-10 07:59N 69°41' E 018°59'0 0.0
2017-Aug-10 07:30N 69°41' E 018°59'0 0.0
2017-Aug-10 07:00N 69°41' E 018°59'0 0.0
2017-Aug-10 06:30N 69°41' E 018°59'0 0.0
2017-Aug-10 06:00N 69°41' E 018°59'0 0.0
2017-Aug-10 05:30N 69°41' E 018°59'0 0.0
2017-Aug-10 05:00N 69°41' E 018°59'0 0.0
2017-Aug-10 04:30N 69°41' E 018°59'0 0.0
2017-Aug-10 04:00N 69°41' E 018°59'0 0.0
2017-Aug-10 03:30N 69°41' E 018°59'0 0.0
2017-Aug-10 03:00N 69°41' E 018°59'0 0.0
2017-Aug-10 02:30N 69°41' E 018°59'0 0.0
2017-Aug-10 02:00N 69°41' E 018°59'0 0.0
2017-Aug-10 01:30N 69°41' E 018°59'0 0.0
2017-Aug-10 01:00N 69°41' E 018°59'0 0.0
2017-Aug-10 00:30N 69°41' E 018°59'0 0.0
2017-Aug-10 00:00N 69°41' E 018°59'0 0.0
2017-Aug-09 23:30N 69°41' E 018°59'0 0.0
2017-Aug-09 23:00N 69°41' E 018°59'0 0.0
2017-Aug-09 22:29N 69°41' E 018°59'0 0.0
2017-Aug-09 22:00N 69°41' E 018°59'0 0.0
2017-Aug-09 21:29N 69°41' E 018°59'0 0.0
2017-Aug-09 21:00N 69°41' E 018°59'0 0.0
2017-Aug-09 20:30N 69°41' E 018°59'0 0.0
2017-Aug-09 20:00N 69°41' E 018°59'0 0.0
2017-Aug-09 19:30N 69°41' E 018°59'0 0.0
2017-Aug-09 19:00N 69°41' E 018°59'0 0.0
2017-Aug-09 18:30N 69°41' E 018°59'0 0.0
2017-Aug-09 18:00N 69°41' E 018°59'0 0.0
2017-Aug-09 17:30N 69°41' E 018°59'0 0.0
2017-Aug-09 17:00N 69°41' E 018°59'0 0.0
2017-Aug-09 16:30N 69°41' E 018°59'0 0.0
2017-Aug-09 16:00N 69°41' E 018°59'0 0.0
2017-Aug-09 15:30N 69°41' E 018°59'0 0.0
2017-Aug-09 15:00N 69°41' E 018°59'0 0.0
2017-Aug-09 14:30N 69°41' E 018°59'0 0.0
2017-Aug-09 14:00N 69°41' E 018°59'0 0.0
2017-Aug-09 13:30N 69°41' E 018°59'0 0.0
2017-Aug-09 13:00N 69°41' E 018°59'0 0.0
2017-Aug-09 12:30N 69°41' E 018°59'0 0.0
2017-Aug-09 12:00N 69°41' E 018°59'0 0.0
2017-Aug-09 11:30N 69°41' E 018°59'0 0.0
2017-Aug-09 11:00N 69°41' E 018°59'0 0.0
2017-Aug-09 10:30N 69°41' E 018°59'0 0.0
2017-Aug-09 10:00N 69°41' E 018°59'0 0.0
2017-Aug-09 09:30N 69°41' E 018°59'0 0.0
2017-Aug-09 09:00N 69°41' E 018°59'0 0.0
2017-Aug-09 08:30N 69°41' E 018°59'0 0.0
2017-Aug-09 08:00N 69°41' E 018°59'0 0.0
2017-Aug-09 07:30N 69°41' E 018°59'0 0.4
2017-Aug-09 07:00N 69°40' E 018°59'0 0.3
2017-Aug-09 06:29N 69°40' E 018°59'0 0.0
2017-Aug-09 06:00N 69°40' E 018°59'0 0.0
2017-Aug-09 05:30N 69°40' E 018°59'0 0.0
2017-Aug-09 05:00N 69°40' E 018°59'0 0.0
2017-Aug-09 04:30N 69°40' E 018°59'0 0.0
2017-Aug-09 04:00N 69°40' E 018°59'0 0.0
2017-Aug-09 03:30N 69°40' E 018°59'0 0.0
2017-Aug-09 03:00N 69°40' E 018°59'0 0.0
2017-Aug-09 02:30N 69°40' E 018°59'0 0.0
2017-Aug-09 02:00N 69°40' E 018°59'0 0.0
2017-Aug-09 01:30N 69°40' E 018°59'0 0.0
2017-Aug-09 01:00N 69°40' E 018°59'0 0.0
2017-Aug-09 00:30N 69°40' E 018°59'0 0.0
2017-Aug-09 00:00N 69°40' E 018°59'0 0.0
2017-Aug-08 23:30N 69°40' E 018°59'0 0.0
2017-Aug-08 23:00N 69°40' E 018°59'0 0.0
2017-Aug-08 22:30N 69°40' E 018°59'0 0.0
2017-Aug-08 22:00N 69°40' E 018°59'0 0.0
2017-Aug-08 21:30N 69°40' E 018°59'0 0.0
2017-Aug-08 21:00N 69°40' E 018°59'0 0.0
2017-Aug-08 20:30N 69°40' E 018°59'0 0.0
2017-Aug-08 20:00N 69°40' E 018°59'0 0.0
2017-Aug-08 19:30N 69°40' E 018°59'0 0.0
2017-Aug-08 19:00N 69°40' E 018°59'0 0.0
2017-Aug-08 18:30N 69°40' E 018°59'0 0.0
2017-Aug-08 18:00N 69°40' E 018°59'0 0.0
2017-Aug-08 17:30N 69°40' E 018°59'0 0.0
2017-Aug-08 17:00N 69°40' E 018°59'0 0.0
2017-Aug-08 16:29N 69°40' E 018°59'0 0.0
2017-Aug-08 16:00N 69°40' E 018°59'0 0.0
2017-Aug-08 15:30N 69°40' E 018°59'0 0.0
2017-Aug-08 15:00N 69°40' E 018°59'0 0.0
2017-Aug-08 14:30N 69°40' E 018°59'0 0.0
2017-Aug-08 14:00N 69°40' E 018°59'0 0.0
2017-Aug-08 13:30N 69°40' E 018°59'0 0.0
2017-Aug-08 13:00N 69°40' E 018°59'0 0.0
2017-Aug-08 12:30N 69°40' E 018°59'0 0.0
2017-Aug-08 11:59N 69°40' E 018°59'0 0.0
2017-Aug-08 11:30N 69°40' E 018°59'0 0.0
2017-Aug-08 10:59N 69°40' E 018°59'0 0.0
2017-Aug-08 10:29N 69°40' E 018°59'0 0.0
2017-Aug-08 10:00N 69°40' E 018°59'0 0.0
2017-Aug-08 09:30N 69°40' E 018°59'0 0.0
2017-Aug-08 09:00N 69°40' E 018°59'0 0.0
2017-Aug-08 08:30N 69°40' E 018°59'3 5.7
2017-Aug-08 08:00N 69°38' E 018°57'0 0.0
2017-Aug-08 07:30N 69°38' E 018°57'0 0.0
2017-Aug-08 07:00N 69°38' E 018°57'0 0.0
2017-Aug-08 06:30N 69°38' E 018°57'0 0.0
2017-Aug-08 05:59N 69°38' E 018°57'0 0.0
2017-Aug-08 05:30N 69°38' E 018°57'0 0.1
2017-Aug-08 05:00N 69°38' E 018°57'1 1.3
2017-Aug-08 04:30N 69°37' E 018°55'2 3.7
2017-Aug-08 04:00N 69°35' E 018°54'0 0.8
2017-Aug-08 03:30N 69°36' E 018°55'0 0.8
2017-Aug-08 03:00N 69°36' E 018°54'0 0.6
2017-Aug-08 02:30N 69°36' E 018°54'1 2.7
2017-Aug-08 02:00N 69°37' E 018°56'3 6.8
2017-Aug-08 01:30N 69°40' E 019°01'4 7.2
2017-Aug-08 01:00N 69°44' E 019°03'3 6.7
2017-Aug-08 00:30N 69°47' E 019°09'3 6.8
2017-Aug-08 00:00N 69°48' E 019°18'3 5.7
2017-Aug-07 23:30N 69°49' E 019°26'3 6.9
2017-Aug-07 23:00N 69°50' E 019°35'3 6.9
2017-Aug-07 22:30N 69°51' E 019°45'2 4.0
2017-Aug-07 22:00N 69°52' E 019°49'1 2.5
2017-Aug-07 21:30N 69°53' E 019°51'1 2.5
2017-Aug-07 21:00N 69°54' E 019°53'1 2.4
2017-Aug-07 20:30N 69°55' E 019°55'1 1.8
2017-Aug-07 20:00N 69°56' E 019°56'1 1.8
2017-Aug-07 19:30N 69°57' E 019°57'1 2.0
2017-Aug-07 19:00N 69°58' E 019°59'1 1.0
2017-Aug-07 18:30N 69°58' E 019°60'1 2.0
2017-Aug-07 18:00N 69°59' E 020°01'1 2.3
2017-Aug-07 17:30N 70°00' E 020°03'2 4.2
2017-Aug-07 17:00N 70°02' E 020°06'3 5.7
2017-Aug-07 16:29N 70°05' E 020°10'3 6.3
2017-Aug-07 16:00N 70°07' E 020°13'4 8.4
2017-Aug-07 15:30N 70°11' E 020°18'5 9.1
2017-Aug-07 15:00N 70°15' E 020°23'510.0
2017-Aug-07 14:30N 70°20' E 020°28'510.1
2017-Aug-07 14:00N 70°25' E 020°33'510.0
2017-Aug-07 13:30N 70°30' E 020°38'510.2
2017-Aug-07 13:00N 70°34' E 020°42'510.6
2017-Aug-07 12:30N 70°40' E 020°42'  
Track history (hours):
 
Tides and Currents Weather Stations Pressure Air Temp Water Temp Dewpoint Dewpoint Depression Visibility Wind Speed Wind Dir Waves Ship Positions

Ole-arvid Nergaard

Last reported at 2017-Aug-16 19:43 UTC. Time now 2017-Aug-16 21:42 UTC.
Position N 69°57' E 016°53'.

Length 55 m; draft 7.2 m.

Type: Fishing. MMSI: 259656000.

Date/timePositionNaut miles runAvg speedWind from/ knotsBaromVisibWave heightAir tempDewpointWater temp
2017-Aug-16 19:43N 69°57' E 016°53'1 4.1
2017-Aug-16 19:29N 69°57' E 016°55'2 3.4
2017-Aug-16 18:59N 69°57' E 017°00'1 1.7
2017-Aug-16 18:30N 69°57' E 016°58'2 3.1
2017-Aug-16 18:00N 69°57' E 016°54'2 3.8
2017-Aug-16 17:30N 69°55' E 016°49'2 4.0
2017-Aug-16 17:00N 69°55' E 016°44'1 0.6
2017-Aug-16 16:00N 69°55' E 016°45'2 3.6
2017-Aug-16 15:30N 69°55' E 016°50'2 3.9
2017-Aug-16 15:00N 69°54' E 016°45'2 4.0
2017-Aug-16 14:30N 69°54' E 016°39'3 3.4
2017-Aug-16 13:38N 69°55' E 016°46'1 3.9
2017-Aug-16 13:30N 69°55' E 016°47'1 2.4
2017-Aug-16 13:00N 69°54' E 016°46'3 1.0
2017-Aug-16 10:31N 69°54' E 016°38'0 4.3
2017-Aug-16 10:29N 69°54' E 016°38'2 3.3
2017-Aug-16 10:00N 69°54' E 016°43'2 3.7
2017-Aug-16 09:30N 69°55' E 016°47'3 1.0
2017-Aug-16 06:59N 69°54' E 016°40'2 3.5
2017-Aug-16 06:30N 69°54' E 016°45'2 3.5
2017-Aug-16 06:00N 69°55' E 016°50'1 2.1
2017-Aug-16 05:29N 69°56' E 016°49'3 4.1
2017-Aug-16 04:45N 69°54' E 016°41'1 4.9
2017-Aug-16 04:30N 69°53' E 016°40'1 1.3
2017-Aug-16 03:49N 69°54' E 016°39'1 2.5
2017-Aug-16 03:30N 69°54' E 016°41'2 3.5
2017-Aug-16 03:00N 69°54' E 016°46'2 1.1
2017-Aug-16 01:03N 69°54' E 016°40'6 2.9
2017-Aug-15 23:06N 69°57' E 016°54'0 3.8
2017-Aug-15 23:00N 69°57' E 016°55'2 4.0
2017-Aug-15 22:30N 69°57' E 017°01'2 4.4
2017-Aug-15 22:00N 69°57' E 017°08'510.3
2017-Aug-15 21:30N 69°58' E 017°23'611.1
2017-Aug-15 20:59N 69°58' E 017°39'611.2
2017-Aug-15 20:29N 69°57' E 017°55'511.0
2017-Aug-15 20:00N 69°57' E 018°11'511.0
2017-Aug-15 19:30N 69°56' E 018°27'511.0
2017-Aug-15 19:00N 69°55' E 018°42'611.5
2017-Aug-15 18:30N 69°51' E 018°55'611.8
2017-Aug-15 18:00N 69°46' E 019°04'611.0
2017-Aug-15 17:30N 69°41' E 019°00'0 0.5
2017-Aug-15 17:00N 69°41' E 018°59'0 0.0
2017-Aug-15 16:30N 69°41' E 018°59'0 0.8
2017-Aug-15 16:00N 69°40' E 018°60'2 3.1
2017-Aug-15 15:30N 69°39' E 018°59'0 0.0
2017-Aug-15 15:00N 69°39' E 018°59'0 0.0
2017-Aug-15 14:30N 69°39' E 018°59'0 0.0
2017-Aug-15 14:00N 69°39' E 018°59'0 0.0
2017-Aug-15 13:30N 69°39' E 018°59'0 0.0
2017-Aug-15 13:00N 69°39' E 018°59'0 0.0
2017-Aug-15 12:30N 69°39' E 018°59'0 0.0
2017-Aug-15 12:00N 69°39' E 018°59'0 0.0
2017-Aug-15 11:29N 69°39' E 018°59'0 0.0
2017-Aug-15 11:00N 69°39' E 018°59'0 0.0
2017-Aug-15 10:30N 69°39' E 018°59'0 0.0
2017-Aug-15 10:00N 69°39' E 018°59'0 0.0
2017-Aug-15 09:30N 69°39' E 018°59'0 0.0
2017-Aug-15 09:00N 69°39' E 018°59'0 0.0
2017-Aug-15 08:30N 69°39' E 018°59'0 0.0
2017-Aug-15 08:00N 69°39' E 018°59'0 0.0
2017-Aug-15 07:30N 69°39' E 018°59'0 0.0
2017-Aug-15 07:00N 69°39' E 018°59'0 0.0
2017-Aug-15 06:30N 69°39' E 018°59'0 0.0
2017-Aug-15 05:59N 69°39' E 018°59'0 0.0
2017-Aug-15 05:30N 69°39' E 018°59'0 0.0
2017-Aug-15 05:00N 69°39' E 018°59'0 0.0
2017-Aug-15 04:30N 69°39' E 018°59'1 1.9
2017-Aug-15 03:59N 69°40' E 018°60'4 8.2
2017-Aug-15 03:30N 69°44' E 019°03'3 6.0
2017-Aug-15 03:00N 69°46' E 019°06'2 3.7
2017-Aug-15 02:30N 69°47' E 019°12'4 7.7
2017-Aug-15 02:00N 69°48' E 019°22'3 6.6
2017-Aug-15 01:30N 69°49' E 019°31'2 4.4
2017-Aug-15 01:00N 69°50' E 019°37'1 2.6
2017-Aug-15 00:30N 69°50' E 019°40'1 2.9
2017-Aug-15 00:00N 69°51' E 019°44'2 4.4
2017-Aug-14 23:30N 69°52' E 019°50'3 6.3
2017-Aug-14 23:00N 69°54' E 019°56'2 4.8
2017-Aug-14 22:29N 69°56' E 019°59'3 5.9
2017-Aug-14 21:59N 69°59' E 020°02'3 6.4
2017-Aug-14 21:30N 70°02' E 020°06'3 5.6
2017-Aug-14 21:00N 70°05' E 020°10'4 9.0
2017-Aug-14 20:30N 70°09' E 020°15'5 9.5
2017-Aug-14 20:00N 70°13' E 020°21'5 9.2
2017-Aug-14 19:30N 70°16' E 020°30'5 9.4
2017-Aug-14 19:00N 70°20' E 020°38'5 9.1
2017-Aug-14 18:30N 70°24' E 020°45'5 9.1
2017-Aug-14 18:00N 70°28' E 020°52'4 8.2
2017-Aug-14 17:30N 70°32' E 020°58'4 7.9
2017-Aug-14 17:00N 70°35' E 021°02'4 8.5
2017-Aug-14 16:30N 70°39' E 021°05'21 0.9
2017-Aug-13 18:29N 70°41' E 020°03'2 4.4
2017-Aug-13 18:00N 70°39' E 019°60'1 1.8
2017-Aug-13 17:30N 70°39' E 019°60'2 3.3
2017-Aug-13 17:00N 70°39' E 020°05'2 3.8
2017-Aug-13 16:30N 70°40' E 020°10'2 3.7
2017-Aug-13 16:00N 70°41' E 020°15'1 0.1
2017-Aug-13 05:22N 70°41' E 020°18'2 4.4
2017-Aug-13 05:00N 70°41' E 020°13'2 4.2
2017-Aug-13 04:30N 70°41' E 020°07'2 4.2
2017-Aug-13 04:00N 70°40' E 020°01'3 6.4
2017-Aug-13 03:30N 70°39' E 019°52'713.5
2017-Aug-13 03:00N 70°38' E 019°32'713.5
2017-Aug-13 02:30N 70°36' E 019°12'713.2
2017-Aug-13 02:00N 70°34' E 018°53'61 3.7
2017-Aug-12 09:29N 69°54' E 016°38'0 0.1
2017-Aug-12 08:49N 69°54' E 016°38'1 3.9
2017-Aug-12 08:30N 69°54' E 016°42'2 4.1
2017-Aug-12 08:00N 69°53' E 016°48'2 4.0
2017-Aug-12 07:30N 69°54' E 016°53'2 4.0
2017-Aug-12 07:00N 69°55' E 016°58'2 3.9
2017-Aug-12 06:30N 69°55' E 017°04'2 4.3
2017-Aug-12 06:00N 69°55' E 017°10'2 3.2
2017-Aug-12 05:30N 69°54' E 017°06'2 3.8
2017-Aug-12 05:00N 69°54' E 017°01'2 3.9
2017-Aug-12 04:30N 69°54' E 016°55'2 3.9
2017-Aug-12 04:00N 69°56' E 016°52'3 0.6
2017-Aug-11 23:07N 69°58' E 016°57'0 4.2
2017-Aug-11 23:00N 69°58' E 016°59'1 2.4
2017-Aug-11 22:30N 69°58' E 017°02'9 3.2
2017-Aug-11 19:36N 69°54' E 016°38'1 6.3
2017-Aug-11 19:29N 69°53' E 016°38'2 4.4
2017-Aug-11 19:00N 69°51' E 016°37'1 1.3
2017-Aug-11 18:30N 69°51' E 016°38'2 3.6
2017-Aug-11 18:00N 69°53' E 016°39'2 3.2
2017-Aug-11 17:17N 69°55' E 016°43'1 3.9
2017-Aug-11 16:59N 69°55' E 016°46'2 3.9
2017-Aug-11 16:30N 69°55' E 016°52'2 4.0
2017-Aug-11 16:00N 69°56' E 016°58'2 4.0
2017-Aug-11 15:30N 69°56' E 017°03'2 4.1
2017-Aug-11 15:00N 69°56' E 017°09'8 7.9
2017-Aug-11 14:00N 69°56' E 017°32'611.9
2017-Aug-11 13:30N 69°57' E 017°50'611.3
2017-Aug-11 13:00N 69°58' E 018°06'511.1
2017-Aug-11 12:30N 69°56' E 018°22'510.8
2017-Aug-11 12:00N 69°55' E 018°37'611.3
2017-Aug-11 11:30N 69°52' E 018°51'510.0
2017-Aug-11 11:00N 69°49' E 019°01'5 9.4
2017-Aug-11 10:30N 69°44' E 019°03'4 7.8
2017-Aug-11 10:00N 69°40' E 018°59'0 0.5
2017-Aug-11 09:30N 69°41' E 018°59'0 0.0
2017-Aug-11 09:00N 69°41' E 018°59'0 0.0
2017-Aug-11 08:30N 69°41' E 018°59'0 0.0
2017-Aug-11 08:00N 69°41' E 018°59'0 0.0
2017-Aug-11 07:30N 69°41' E 018°59'0 0.0
2017-Aug-11 07:00N 69°41' E 018°59'0 0.0
2017-Aug-11 06:30N 69°41' E 018°59'0 0.0
2017-Aug-11 06:00N 69°41' E 018°59'0 0.0
2017-Aug-11 05:30N 69°41' E 018°59'0 0.0
2017-Aug-11 05:00N 69°41' E 018°59'0 0.0
2017-Aug-11 04:30N 69°41' E 018°59'0 0.0
2017-Aug-11 04:00N 69°41' E 018°59'0 0.0
2017-Aug-11 03:30N 69°41' E 018°59'0 0.0
2017-Aug-11 03:00N 69°41' E 018°59'0 0.0
2017-Aug-11 02:30N 69°41' E 018°59'0 0.0
2017-Aug-11 02:00N 69°41' E 018°59'0 0.0
2017-Aug-11 01:30N 69°41' E 018°59'0 0.0
2017-Aug-11 01:00N 69°41' E 018°59'0 0.0
2017-Aug-11 00:29N 69°41' E 018°59'0 0.0
2017-Aug-11 00:00N 69°41' E 018°59'0 0.0
2017-Aug-10 23:30N 69°41' E 018°59'0 0.0
2017-Aug-10 23:00N 69°41' E 018°59'0 0.0
2017-Aug-10 22:29N 69°41' E 018°59'0 0.0
2017-Aug-10 22:00N 69°41' E 018°59'0 0.0
2017-Aug-10 21:30N 69°41' E 018°59'0 0.0
2017-Aug-10 20:59N 69°41' E 018°59'0 0.0
2017-Aug-10 20:30N 69°41' E 018°59'0 0.0
2017-Aug-10 19:59N 69°41' E 018°59'0 0.0
2017-Aug-10 19:29N 69°41' E 018°59'0 0.0
2017-Aug-10 19:00N 69°41' E 018°59'0 0.0
2017-Aug-10 18:29N 69°41' E 018°59'0 0.0
2017-Aug-10 17:59N 69°41' E 018°59'0 0.0
2017-Aug-10 17:30N 69°41' E 018°59'0 0.0
2017-Aug-10 17:00N 69°41' E 018°59'0 0.0
2017-Aug-10 16:30N 69°41' E 018°59'0 0.0
2017-Aug-10 16:00N 69°41' E 018°59'0 0.0
2017-Aug-10 15:30N 69°41' E 018°59'0 0.0
2017-Aug-10 15:00N 69°41' E 018°59'0 0.0
2017-Aug-10 14:30N 69°41' E 018°59'0 0.0
2017-Aug-10 13:57N 69°41' E 018°59'0 0.0
2017-Aug-10 13:30N 69°41' E 018°59'0 0.0
2017-Aug-10 13:00N 69°41' E 018°59'0 0.0
2017-Aug-10 12:30N 69°41' E 018°59'0 0.0
2017-Aug-10 12:00N 69°41' E 018°59'0 0.0
2017-Aug-10 11:30N 69°41' E 018°59'0 0.0
2017-Aug-10 11:00N 69°41' E 018°59'0 0.0
2017-Aug-10 10:30N 69°41' E 018°59'0 0.0
2017-Aug-10 10:00N 69°41' E 018°59'0 0.0
2017-Aug-10 09:30N 69°41' E 018°59'0 0.0
2017-Aug-10 09:00N 69°41' E 018°59'0 0.0
2017-Aug-10 08:30N 69°41' E 018°59'0 0.0
2017-Aug-10 07:59N 69°41' E 018°59'0 0.0
2017-Aug-10 07:30N 69°41' E 018°59'0 0.0
2017-Aug-10 07:00N 69°41' E 018°59'0 0.0
2017-Aug-10 06:30N 69°41' E 018°59'0 0.0
2017-Aug-10 06:00N 69°41' E 018°59'0 0.0
2017-Aug-10 05:30N 69°41' E 018°59'0 0.0
2017-Aug-10 05:00N 69°41' E 018°59'0 0.0
2017-Aug-10 04:30N 69°41' E 018°59'0 0.0
2017-Aug-10 04:00N 69°41' E 018°59'0 0.0
2017-Aug-10 03:30N 69°41' E 018°59'0 0.0
2017-Aug-10 03:00N 69°41' E 018°59'0 0.0
2017-Aug-10 02:30N 69°41' E 018°59'0 0.0
2017-Aug-10 02:00N 69°41' E 018°59'0 0.0
2017-Aug-10 01:30N 69°41' E 018°59'0 0.0
2017-Aug-10 01:00N 69°41' E 018°59'0 0.0
2017-Aug-10 00:30N 69°41' E 018°59'0 0.0
2017-Aug-10 00:00N 69°41' E 018°59'0 0.0
2017-Aug-09 23:30N 69°41' E 018°59'0 0.0
2017-Aug-09 23:00N 69°41' E 018°59'0 0.0
2017-Aug-09 22:29N 69°41' E 018°59'0 0.0
2017-Aug-09 22:00N 69°41' E 018°59'0 0.0
2017-Aug-09 21:29N 69°41' E 018°59'0 0.0
2017-Aug-09 21:00N 69°41' E 018°59'0 0.0
2017-Aug-09 20:30N 69°41' E 018°59'0 0.0
2017-Aug-09 20:00N 69°41' E 018°59'0 0.0
2017-Aug-09 19:30N 69°41' E 018°59'0 0.0
2017-Aug-09 19:00N 69°41' E 018°59'0 0.0
2017-Aug-09 18:30N 69°41' E 018°59'0 0.0
2017-Aug-09 18:00N 69°41' E 018°59'0 0.0
2017-Aug-09 17:30N 69°41' E 018°59'0 0.0
2017-Aug-09 17:00N 69°41' E 018°59'0 0.0
2017-Aug-09 16:30N 69°41' E 018°59'0 0.0
2017-Aug-09 16:00N 69°41' E 018°59'0 0.0
2017-Aug-09 15:30N 69°41' E 018°59'0 0.0
2017-Aug-09 15:00N 69°41' E 018°59'0 0.0
2017-Aug-09 14:30N 69°41' E 018°59'0 0.0
2017-Aug-09 14:00N 69°41' E 018°59'0 0.0
2017-Aug-09 13:30N 69°41' E 018°59'0 0.0
2017-Aug-09 13:00N 69°41' E 018°59'0 0.0
2017-Aug-09 12:30N 69°41' E 018°59'0 0.0
2017-Aug-09 12:00N 69°41' E 018°59'0 0.0
2017-Aug-09 11:30N 69°41' E 018°59'0 0.0
2017-Aug-09 11:00N 69°41' E 018°59'0 0.0
2017-Aug-09 10:30N 69°41' E 018°59'0 0.0
2017-Aug-09 10:00N 69°41' E 018°59'0 0.0
2017-Aug-09 09:30N 69°41' E 018°59'0 0.0
2017-Aug-09 09:00N 69°41' E 018°59'0 0.0
2017-Aug-09 08:30N 69°41' E 018°59'0 0.0
2017-Aug-09 08:00N 69°41' E 018°59'0 0.0
2017-Aug-09 07:30N 69°41' E 018°59'0 0.4
2017-Aug-09 07:00N 69°40' E 018°59'0 0.3
2017-Aug-09 06:29N 69°40' E 018°59'0 0.0
2017-Aug-09 06:00N 69°40' E 018°59'0 0.0
2017-Aug-09 05:30N 69°40' E 018°59'0 0.0
2017-Aug-09 05:00N 69°40' E 018°59'0 0.0
2017-Aug-09 04:30N 69°40' E 018°59'0 0.0
2017-Aug-09 04:00N 69°40' E 018°59'0 0.0
2017-Aug-09 03:30N 69°40' E 018°59'0 0.0
2017-Aug-09 03:00N 69°40' E 018°59'0 0.0
2017-Aug-09 02:30N 69°40' E 018°59'0 0.0
2017-Aug-09 02:00N 69°40' E 018°59'0 0.0
2017-Aug-09 01:30N 69°40' E 018°59'0 0.0
2017-Aug-09 01:00N 69°40' E 018°59'0 0.0
2017-Aug-09 00:30N 69°40' E 018°59'0 0.0
2017-Aug-09 00:00N 69°40' E 018°59'0 0.0
2017-Aug-08 23:30N 69°40' E 018°59'0 0.0
2017-Aug-08 23:00N 69°40' E 018°59'0 0.0
2017-Aug-08 22:30N 69°40' E 018°59'0 0.0
2017-Aug-08 22:00N 69°40' E 018°59'0 0.0
2017-Aug-08 21:30N 69°40' E 018°59'0 0.0
2017-Aug-08 21:00N 69°40' E 018°59'0 0.0
2017-Aug-08 20:30N 69°40' E 018°59'0 0.0
2017-Aug-08 20:00N 69°40' E 018°59'0 0.0
2017-Aug-08 19:30N 69°40' E 018°59'0 0.0
2017-Aug-08 19:00N 69°40' E 018°59'0 0.0
2017-Aug-08 18:30N 69°40' E 018°59'0 0.0
2017-Aug-08 18:00N 69°40' E 018°59'0 0.0
2017-Aug-08 17:30N 69°40' E 018°59'0 0.0
2017-Aug-08 17:00N 69°40' E 018°59'0 0.0
2017-Aug-08 16:29N 69°40' E 018°59'0 0.0
2017-Aug-08 16:00N 69°40' E 018°59'0 0.0
2017-Aug-08 15:30N 69°40' E 018°59'0 0.0
2017-Aug-08 15:00N 69°40' E 018°59'0 0.0
2017-Aug-08 14:30N 69°40' E 018°59'0 0.0
2017-Aug-08 14:00N 69°40' E 018°59'0 0.0
2017-Aug-08 13:30N 69°40' E 018°59'0 0.0
2017-Aug-08 13:00N 69°40' E 018°59'0 0.0
2017-Aug-08 12:30N 69°40' E 018°59'0 0.0
2017-Aug-08 11:59N 69°40' E 018°59'0 0.0
2017-Aug-08 11:30N 69°40' E 018°59'0 0.0
2017-Aug-08 10:59N 69°40' E 018°59'0 0.0
2017-Aug-08 10:29N 69°40' E 018°59'0 0.0
2017-Aug-08 10:00N 69°40' E 018°59'0 0.0
2017-Aug-08 09:30N 69°40' E 018°59'0 0.0
2017-Aug-08 09:00N 69°40' E 018°59'0 0.0
2017-Aug-08 08:30N 69°40' E 018°59'3 5.7
2017-Aug-08 08:00N 69°38' E 018°57'0 0.0
2017-Aug-08 07:30N 69°38' E 018°57'0 0.0
2017-Aug-08 07:00N 69°38' E 018°57'0 0.0
2017-Aug-08 06:30N 69°38' E 018°57'0 0.0
2017-Aug-08 05:59N 69°38' E 018°57'0 0.0
2017-Aug-08 05:30N 69°38' E 018°57'0 0.1
2017-Aug-08 05:00N 69°38' E 018°57'1 1.3
2017-Aug-08 04:30N 69°37' E 018°55'2 3.7
2017-Aug-08 04:00N 69°35' E 018°54'0 0.8
2017-Aug-08 03:30N 69°36' E 018°55'0 0.8
2017-Aug-08 03:00N 69°36' E 018°54'0 0.6
2017-Aug-08 02:30N 69°36' E 018°54'1 2.7
2017-Aug-08 02:00N 69°37' E 018°56'3 6.8
2017-Aug-08 01:30N 69°40' E 019°01'4 7.2
2017-Aug-08 01:00N 69°44' E 019°03'3 6.7
2017-Aug-08 00:30N 69°47' E 019°09'3 6.8
2017-Aug-08 00:00N 69°48' E 019°18'3 5.7
2017-Aug-07 23:30N 69°49' E 019°26'3 6.9
2017-Aug-07 23:00N 69°50' E 019°35'3 6.9
2017-Aug-07 22:30N 69°51' E 019°45'2 4.0
2017-Aug-07 22:00N 69°52' E 019°49'1 2.5
2017-Aug-07 21:30N 69°53' E 019°51'1 2.5
2017-Aug-07 21:00N 69°54' E 019°53'1 2.4
2017-Aug-07 20:30N 69°55' E 019°55'1 1.8
2017-Aug-07 20:00N 69°56' E 019°56'1 1.8
2017-Aug-07 19:30N 69°57' E 019°57'1 2.0
2017-Aug-07 19:00N 69°58' E 019°59'1 1.0
2017-Aug-07 18:30N 69°58' E 019°60'1 2.0
2017-Aug-07 18:00N 69°59' E 020°01'1 2.3
2017-Aug-07 17:30N 70°00' E 020°03'2 4.2
2017-Aug-07 17:00N 70°02' E 020°06'3 5.7
2017-Aug-07 16:29N 70°05' E 020°10'3 6.3
2017-Aug-07 16:00N 70°07' E 020°13'4 8.4
2017-Aug-07 15:30N 70°11' E 020°18'5 9.1
2017-Aug-07 15:00N 70°15' E 020°23'510.0
2017-Aug-07 14:30N 70°20' E 020°28'510.1
2017-Aug-07 14:00N 70°25' E 020°33'510.0
2017-Aug-07 13:30N 70°30' E 020°38'510.2
2017-Aug-07 13:00N 70°34' E 020°42'510.6
2017-Aug-07 12:30N 70°40' E 020°42'  

Dump ship's entire track history